sensor_id;sensor_type;location;lat;lon;timestamp;noise_LAeq;noise_LA_min;noise_LA_max;noise_LA01;noise_LA95
41518;Laerm;27249;48.094;-1.690;2023-02-19T00:01:07;51.64;41.75;67.38;;
41518;Laerm;27249;48.094;-1.690;2023-02-19T00:03:33;51.63;42.53;60.77;;
41518;Laerm;27249;48.094;-1.690;2023-02-19T00:06:02;54.68;43.54;66.05;;
41518;Laerm;27249;48.094;-1.690;2023-02-19T00:08:29;48.19;40.98;59.14;;
41518;Laerm;27249;48.094;-1.690;2023-02-19T00:10:58;52.67;43.14;60.19;;
41518;Laerm;27249;48.094;-1.690;2023-02-19T00:13:24;54.01;42.82;68.43;;
41518;Laerm;27249;48.094;-1.690;2023-02-19T00:15:49;50.44;42.47;60.03;;
41518;Laerm;27249;48.094;-1.690;2023-02-19T00:18:14;52.31;42.88;62.27;;
41518;Laerm;27249;48.094;-1.690;2023-02-19T00:20:39;54.80;43.54;64.16;;
41518;Laerm;27249;48.094;-1.690;2023-02-19T00:23:04;51.18;43.44;59.86;;
41518;Laerm;27249;48.094;-1.690;2023-02-19T00:25:30;54.37;43.19;62.56;;
41518;Laerm;27249;48.094;-1.690;2023-02-19T00:27:55;52.50;43.49;61.16;;
41518;Laerm;27249;48.094;-1.690;2023-02-19T00:30:20;49.81;42.22;60.52;;
41518;Laerm;27249;48.094;-1.690;2023-02-19T00:32:48;53.14;42.29;65.26;;
41518;Laerm;27249;48.094;-1.690;2023-02-19T00:35:14;50.11;42.16;61.16;;
41518;Laerm;27249;48.094;-1.690;2023-02-19T00:37:39;50.43;41.96;60.30;;
41518;Laerm;27249;48.094;-1.690;2023-02-19T00:40:04;52.01;42.03;63.88;;
41518;Laerm;27249;48.094;-1.690;2023-02-19T00:42:29;51.81;42.36;63.75;;
41518;Laerm;27249;48.094;-1.690;2023-02-19T00:44:55;52.45;42.82;61.41;;
41518;Laerm;27249;48.094;-1.690;2023-02-19T00:47:20;53.84;43.04;69.89;;
41518;Laerm;27249;48.094;-1.690;2023-02-19T00:49:45;50.94;42.65;61.11;;
41518;Laerm;27249;48.094;-1.690;2023-02-19T00:52:10;50.96;41.68;63.14;;
41518;Laerm;27249;48.094;-1.690;2023-02-19T00:54:36;50.17;41.61;60.79;;
41518;Laerm;27249;48.094;-1.690;2023-02-19T00:57:01;48.86;41.96;64.83;;
41518;Laerm;27249;48.094;-1.690;2023-02-19T00:59:26;49.70;42.16;59.88;;
41518;Laerm;27249;48.094;-1.690;2023-02-19T01:01:51;50.24;41.68;60.81;;
41518;Laerm;27249;48.094;-1.690;2023-02-19T01:04:16;66.00;42.47;86.07;;
41518;Laerm;27249;48.094;-1.690;2023-02-19T01:06:42;53.51;41.82;67.18;;
41518;Laerm;27249;48.094;-1.690;2023-02-19T01:09:07;49.27;40.80;58.72;;
41518;Laerm;27249;48.094;-1.690;2023-02-19T01:11:32;52.57;41.75;62.76;;
41518;Laerm;27249;48.094;-1.690;2023-02-19T01:13:58;54.22;42.47;65.96;;
41518;Laerm;27249;48.094;-1.690;2023-02-19T01:16:24;46.10;41.38;59.72;;
41518;Laerm;27249;48.094;-1.690;2023-02-19T01:18:49;49.36;41.89;61.81;;
41518;Laerm;27249;48.094;-1.690;2023-02-19T01:21:16;47.76;40.98;62.94;;
41518;Laerm;27249;48.094;-1.690;2023-02-19T01:23:42;48.17;40.98;60.33;;
41518;Laerm;27249;48.094;-1.690;2023-02-19T01:26:09;49.28;40.43;61.21;;
41518;Laerm;27249;48.094;-1.690;2023-02-19T01:28:35;45.36;40.23;58.77;;
41518;Laerm;27249;48.094;-1.690;2023-02-19T01:31:01;48.58;40.89;62.60;;
41518;Laerm;27249;48.094;-1.690;2023-02-19T01:33:26;49.18;40.54;64.13;;
41518;Laerm;27249;48.094;-1.690;2023-02-19T01:35:52;51.37;40.80;66.01;;
41518;Laerm;27249;48.094;-1.690;2023-02-19T01:38:17;49.58;40.80;66.11;;
41518;Laerm;27249;48.094;-1.690;2023-02-19T01:40:42;46.13;40.13;59.89;;
41518;Laerm;27249;48.094;-1.690;2023-02-19T01:43:13;49.57;39.70;59.51;;
41518;Laerm;27249;48.094;-1.690;2023-02-19T01:45:42;48.39;40.98;57.56;;
41518;Laerm;27249;48.094;-1.690;2023-02-19T01:48:21;46.24;39.58;58.67;;
41518;Laerm;27249;48.094;-1.690;2023-02-19T01:50:56;50.43;40.80;59.94;;
41518;Laerm;27249;48.094;-1.690;2023-02-19T01:53:23;47.31;40.62;60.73;;
41518;Laerm;27249;48.094;-1.690;2023-02-19T01:55:51;47.03;41.68;56.92;;
41518;Laerm;27249;48.094;-1.690;2023-02-19T01:58:17;48.13;40.71;61.89;;
41518;Laerm;27249;48.094;-1.690;2023-02-19T02:00:43;49.86;41.06;63.34;;
41518;Laerm;27249;48.094;-1.690;2023-02-19T02:03:08;47.77;41.53;62.00;;
41518;Laerm;27249;48.094;-1.690;2023-02-19T02:08:17;47.70;40.13;59.04;;
41518;Laerm;27249;48.094;-1.690;2023-02-19T02:11:01;50.27;39.34;63.57;;
41518;Laerm;27249;48.094;-1.690;2023-02-19T02:13:27;50.46;40.62;64.68;;
41518;Laerm;27249;48.094;-1.690;2023-02-19T02:16:09;51.76;41.14;72.34;;
41518;Laerm;27249;48.094;-1.690;2023-02-19T02:23:56;52.99;40.96;64.99;;
41518;Laerm;27249;48.094;-1.690;2023-02-19T02:31:53;49.17;40.33;60.49;;
41518;Laerm;27249;48.094;-1.690;2023-02-19T02:34:33;50.32;40.43;61.76;;
41518;Laerm;27249;48.094;-1.690;2023-02-19T02:37:00;46.36;40.23;59.72;;
41518;Laerm;27249;48.094;-1.690;2023-02-19T02:39:26;48.40;41.61;58.54;;
41518;Laerm;27249;48.094;-1.690;2023-02-19T02:41:56;51.99;41.46;63.40;;
41518;Laerm;27249;48.094;-1.690;2023-02-19T02:44:40;46.60;40.89;58.89;;
41518;Laerm;27249;48.094;-1.690;2023-02-19T02:47:06;51.71;40.71;69.49;;
41518;Laerm;27249;48.094;-1.690;2023-02-19T02:49:54;45.57;39.81;59.57;;
41518;Laerm;27249;48.094;-1.690;2023-02-19T02:52:30;51.34;41.30;62.05;;
41518;Laerm;27249;48.094;-1.690;2023-02-19T02:55:14;48.05;39.92;61.11;;
41518;Laerm;27249;48.094;-1.690;2023-02-19T02:57:40;46.68;41.06;56.90;;
41518;Laerm;27249;48.094;-1.690;2023-02-19T03:00:05;46.98;41.38;56.40;;
41518;Laerm;27249;48.094;-1.690;2023-02-19T03:02:31;45.23;41.46;57.63;;
41518;Laerm;27249;48.094;-1.690;2023-02-19T03:04:57;44.46;41.30;56.82;;
41518;Laerm;27249;48.094;-1.690;2023-02-19T03:10:35;50.02;41.82;61.46;;
41518;Laerm;27249;48.094;-1.690;2023-02-19T03:13:02;45.72;41.14;57.05;;
41518;Laerm;27249;48.094;-1.690;2023-02-19T03:15:50;51.04;41.30;65.46;;
41518;Laerm;27249;48.094;-1.690;2023-02-19T03:18:36;47.06;41.46;57.49;;
41518;Laerm;27249;48.094;-1.690;2023-02-19T03:21:21;51.97;41.38;66.92;;
41518;Laerm;27249;48.094;-1.690;2023-02-19T03:23:47;44.56;41.38;52.97;;
41518;Laerm;27249;48.094;-1.690;2023-02-19T03:26:31;50.91;41.53;62.26;;
41518;Laerm;27249;48.094;-1.690;2023-02-19T03:28:57;50.14;41.81;64.04;;
41518;Laerm;27249;48.094;-1.690;2023-02-19T03:31:41;48.57;41.26;58.65;;
41518;Laerm;27249;48.094;-1.690;2023-02-19T03:34:08;51.01;42.06;63.09;;
41518;Laerm;27249;48.094;-1.690;2023-02-19T03:36:36;43.55;40.43;50.32;;
41518;Laerm;27249;48.094;-1.690;2023-02-19T03:39:05;47.12;40.71;58.03;;
41518;Laerm;27249;48.094;-1.690;2023-02-19T03:44:06;46.61;41.75;56.46;;
41518;Laerm;27249;48.094;-1.690;2023-02-19T03:46:41;48.19;41.22;59.90;;
41518;Laerm;27249;48.094;-1.690;2023-02-19T03:49:11;49.73;41.61;60.52;;
41518;Laerm;27249;48.094;-1.690;2023-02-19T03:51:42;48.70;41.68;60.98;;
41518;Laerm;27249;48.094;-1.690;2023-02-19T03:54:19;47.46;41.46;64.46;;
41518;Laerm;27249;48.094;-1.690;2023-02-19T03:56:55;50.03;41.22;61.69;;
41518;Laerm;27249;48.094;-1.690;2023-02-19T04:01:57;51.67;41.61;62.78;;
41518;Laerm;27249;48.094;-1.690;2023-02-19T04:04:26;49.42;41.14;60.96;;
41518;Laerm;27249;48.094;-1.690;2023-02-19T04:06:54;47.52;41.68;60.87;;
41518;Laerm;27249;48.094;-1.690;2023-02-19T04:09:20;50.50;41.82;62.64;;
41518;Laerm;27249;48.094;-1.690;2023-02-19T04:11:46;48.10;41.53;61.07;;
41518;Laerm;27249;48.094;-1.690;2023-02-19T04:14:20;49.92;41.46;59.88;;
41518;Laerm;27249;48.094;-1.690;2023-02-19T04:16:48;51.37;41.53;62.10;;
41518;Laerm;27249;48.094;-1.690;2023-02-19T04:19:16;48.18;42.03;59.96;;
41518;Laerm;27249;48.094;-1.690;2023-02-19T04:21:42;47.94;41.53;60.77;;
41518;Laerm;27249;48.094;-1.690;2023-02-19T04:24:10;51.43;41.89;61.07;;
41518;Laerm;27249;48.094;-1.690;2023-02-19T04:26:36;43.90;40.89;51.24;;
41518;Laerm;27249;48.094;-1.690;2023-02-19T04:29:02;51.46;41.53;68.50;;
41518;Laerm;27249;48.094;-1.690;2023-02-19T04:31:27;48.11;41.30;63.51;;
41518;Laerm;27249;48.094;-1.690;2023-02-19T04:33:53;49.87;42.06;61.41;;
41518;Laerm;27249;48.094;-1.690;2023-02-19T04:36:19;52.52;42.53;61.83;;
41518;Laerm;27249;48.094;-1.690;2023-02-19T04:38:44;50.26;42.76;58.54;;
41518;Laerm;27249;48.094;-1.690;2023-02-19T04:41:09;51.26;42.76;61.10;;
41518;Laerm;27249;48.094;-1.690;2023-02-19T04:43:34;45.93;41.82;58.08;;
41518;Laerm;27249;48.094;-1.690;2023-02-19T04:46:00;48.47;41.06;63.40;;
41518;Laerm;27249;48.094;-1.690;2023-02-19T04:48:25;49.32;41.38;63.61;;
41518;Laerm;27249;48.094;-1.690;2023-02-19T04:50:51;51.37;41.61;66.29;;
41518;Laerm;27249;48.094;-1.690;2023-02-19T04:53:16;49.57;41.61;60.64;;
41518;Laerm;27249;48.094;-1.690;2023-02-19T04:55:41;50.56;41.89;63.42;;
41518;Laerm;27249;48.094;-1.690;2023-02-19T04:58:06;48.52;41.75;61.99;;
41518;Laerm;27249;48.094;-1.690;2023-02-19T05:00:31;51.84;42.03;61.56;;
41518;Laerm;27249;48.094;-1.690;2023-02-19T05:02:58;52.07;42.03;62.65;;
41518;Laerm;27249;48.094;-1.690;2023-02-19T05:05:23;54.38;42.41;68.65;;
41518;Laerm;27249;48.094;-1.690;2023-02-19T05:07:48;47.82;42.09;58.56;;
41518;Laerm;27249;48.094;-1.690;2023-02-19T05:10:13;49.25;41.46;60.00;;
41518;Laerm;27249;48.094;-1.690;2023-02-19T05:12:39;45.98;41.68;57.99;;
41518;Laerm;27249;48.094;-1.690;2023-02-19T05:15:04;48.81;41.75;60.39;;
41518;Laerm;27249;48.094;-1.690;2023-02-19T05:17:31;51.97;42.30;63.12;;
41518;Laerm;27249;48.094;-1.690;2023-02-19T05:19:56;53.45;43.39;63.95;;
41518;Laerm;27249;48.094;-1.690;2023-02-19T05:22:21;49.43;42.03;60.77;;
41518;Laerm;27249;48.094;-1.690;2023-02-19T05:24:47;54.62;42.93;65.74;;
41518;Laerm;27249;48.094;-1.690;2023-02-19T05:27:12;47.76;41.68;60.73;;
41518;Laerm;27249;48.094;-1.690;2023-02-19T05:29:37;52.34;40.80;67.05;;
41518;Laerm;27249;48.094;-1.690;2023-02-19T05:32:02;54.93;43.34;68.15;;
41518;Laerm;27249;48.094;-1.690;2023-02-19T05:34:28;49.93;41.61;65.16;;
41518;Laerm;27249;48.094;-1.690;2023-02-19T05:36:53;48.13;41.06;64.50;;
41518;Laerm;27249;48.094;-1.690;2023-02-19T05:39:18;49.95;41.61;62.21;;
41518;Laerm;27249;48.094;-1.690;2023-02-19T05:41:43;50.95;41.30;64.28;;
41518;Laerm;27249;48.094;-1.690;2023-02-19T05:44:09;50.53;42.03;62.85;;
41518;Laerm;27249;48.094;-1.690;2023-02-19T05:46:35;51.68;42.35;64.30;;
41518;Laerm;27249;48.094;-1.690;2023-02-19T05:49:00;50.31;42.47;66.69;;
41518;Laerm;27249;48.094;-1.690;2023-02-19T05:51:26;51.39;42.76;62.63;;
41518;Laerm;27249;48.094;-1.690;2023-02-19T05:53:51;49.60;41.68;62.74;;
41518;Laerm;27249;48.094;-1.690;2023-02-19T05:56:23;52.94;41.61;65.96;;
41518;Laerm;27249;48.094;-1.690;2023-02-19T05:58:50;51.08;42.16;60.94;;
41518;Laerm;27249;48.094;-1.690;2023-02-19T06:01:16;52.98;41.75;73.00;;
41518;Laerm;27249;48.094;-1.690;2023-02-19T06:03:42;51.40;42.71;61.78;;
41518;Laerm;27249;48.094;-1.690;2023-02-19T06:06:08;50.90;42.36;63.78;;
41518;Laerm;27249;48.094;-1.690;2023-02-19T06:08:34;52.05;42.09;63.43;;
41518;Laerm;27249;48.094;-1.690;2023-02-19T06:10:59;48.76;42.47;60.83;;
41518;Laerm;27249;48.094;-1.690;2023-02-19T06:13:24;50.69;42.36;66.18;;
41518;Laerm;27249;48.094;-1.690;2023-02-19T06:15:49;47.56;41.82;58.41;;
41518;Laerm;27249;48.094;-1.690;2023-02-19T06:18:15;46.77;39.08;57.93;;
41518;Laerm;27249;48.094;-1.690;2023-02-19T06:20:40;48.10;40.71;62.01;;
41518;Laerm;27249;48.094;-1.690;2023-02-19T06:23:05;52.36;43.49;59.62;;
41518;Laerm;27249;48.094;-1.690;2023-02-19T06:25:30;53.34;42.74;73.26;;
41518;Laerm;27249;48.094;-1.690;2023-02-19T06:27:55;49.34;41.53;68.75;;
41518;Laerm;27249;48.094;-1.690;2023-02-19T06:30:21;49.91;41.22;65.74;;
41518;Laerm;27249;48.094;-1.690;2023-02-19T06:32:46;52.26;42.29;63.72;;
41518;Laerm;27249;48.094;-1.690;2023-02-19T06:35:11;49.72;42.09;68.97;;
41518;Laerm;27249;48.094;-1.690;2023-02-19T06:37:36;52.88;40.79;64.26;;
41518;Laerm;27249;48.094;-1.690;2023-02-19T06:40:01;52.72;41.75;66.50;;
41518;Laerm;27249;48.094;-1.690;2023-02-19T06:42:30;51.15;42.53;65.70;;
41518;Laerm;27249;48.094;-1.690;2023-02-19T06:44:55;47.63;41.22;68.79;;
41518;Laerm;27249;48.094;-1.690;2023-02-19T06:47:20;48.01;41.61;59.39;;
41518;Laerm;27249;48.094;-1.690;2023-02-19T06:49:45;48.63;41.89;58.42;;
41518;Laerm;27249;48.094;-1.690;2023-02-19T06:52:10;48.72;42.09;61.40;;
41518;Laerm;27249;48.094;-1.690;2023-02-19T06:54:36;49.71;41.88;66.92;;
41518;Laerm;27249;48.094;-1.690;2023-02-19T06:57:01;47.30;41.68;59.63;;
41518;Laerm;27249;48.094;-1.690;2023-02-19T06:59:26;50.14;42.41;58.42;;
41518;Laerm;27249;48.094;-1.690;2023-02-19T07:01:51;49.39;42.41;59.52;;
41518;Laerm;27249;48.094;-1.690;2023-02-19T07:04:16;50.84;42.35;60.09;;
41518;Laerm;27249;48.094;-1.690;2023-02-19T07:06:42;46.19;41.61;57.76;;
41518;Laerm;27249;48.094;-1.690;2023-02-19T07:09:08;52.61;43.14;69.61;;
41518;Laerm;27249;48.094;-1.690;2023-02-19T07:11:34;48.36;42.41;59.52;;
41518;Laerm;27249;48.094;-1.690;2023-02-19T07:14:00;51.35;43.24;58.57;;
41518;Laerm;27249;48.094;-1.690;2023-02-19T07:16:26;52.10;43.19;60.89;;
41518;Laerm;27249;48.094;-1.690;2023-02-19T07:18:51;61.85;42.76;88.72;;
41518;Laerm;27249;48.094;-1.690;2023-02-19T07:21:17;51.27;43.99;60.32;;
41518;Laerm;27249;48.094;-1.690;2023-02-19T07:23:46;51.98;43.14;61.28;;
41518;Laerm;27249;48.094;-1.690;2023-02-19T07:26:12;54.51;44.19;66.31;;
41518;Laerm;27249;48.094;-1.690;2023-02-19T07:28:39;51.32;42.59;62.02;;
41518;Laerm;27249;48.094;-1.690;2023-02-19T07:31:04;52.25;42.41;64.60;;
41518;Laerm;27249;48.094;-1.690;2023-02-19T07:33:30;53.32;42.76;62.60;;
41518;Laerm;27249;48.094;-1.690;2023-02-19T07:35:55;51.89;42.41;62.24;;
41518;Laerm;27249;48.094;-1.690;2023-02-19T07:38:21;51.63;42.29;60.54;;
41518;Laerm;27249;48.094;-1.690;2023-02-19T07:40:50;52.68;42.82;63.28;;
41518;Laerm;27249;48.094;-1.690;2023-02-19T07:43:16;49.57;41.96;61.67;;
41518;Laerm;27249;48.094;-1.690;2023-02-19T07:45:41;52.80;42.93;64.02;;
41518;Laerm;27249;48.094;-1.690;2023-02-19T07:48:06;52.43;42.93;69.21;;
41518;Laerm;27249;48.094;-1.690;2023-02-19T07:50:32;53.63;43.81;63.00;;
41518;Laerm;27249;48.094;-1.690;2023-02-19T07:53:12;53.43;42.93;63.28;;
41518;Laerm;27249;48.094;-1.690;2023-02-19T07:55:37;52.84;43.29;66.17;;
41518;Laerm;27249;48.094;-1.690;2023-02-19T07:58:03;59.48;45.33;74.25;;
41518;Laerm;27249;48.094;-1.690;2023-02-19T08:00:28;54.47;43.14;67.58;;
41518;Laerm;27249;48.094;-1.690;2023-02-19T08:02:53;52.17;43.64;65.43;;
41518;Laerm;27249;48.094;-1.690;2023-02-19T08:05:32;50.71;42.41;62.30;;
41518;Laerm;27249;48.094;-1.690;2023-02-19T08:07:57;52.55;42.16;62.17;;
41518;Laerm;27249;48.094;-1.690;2023-02-19T08:10:23;53.15;42.85;64.78;;
41518;Laerm;27249;48.094;-1.690;2023-02-19T08:13:11;52.27;43.04;63.17;;
41518;Laerm;27249;48.094;-1.690;2023-02-19T08:15:54;51.21;42.76;65.71;;
41518;Laerm;27249;48.094;-1.690;2023-02-19T08:18:22;52.04;42.71;61.41;;
41518;Laerm;27249;48.094;-1.690;2023-02-19T08:20:47;53.05;42.59;61.68;;
41518;Laerm;27249;48.094;-1.690;2023-02-19T08:23:12;52.94;42.53;64.95;;
41518;Laerm;27249;48.094;-1.690;2023-02-19T08:25:38;53.32;43.09;61.89;;
41518;Laerm;27249;48.094;-1.690;2023-02-19T08:28:04;50.98;43.14;60.23;;
41518;Laerm;27249;48.094;-1.690;2023-02-19T08:30:30;52.96;45.01;63.44;;
41518;Laerm;27249;48.094;-1.690;2023-02-19T08:32:56;50.15;42.88;67.24;;
41518;Laerm;27249;48.094;-1.690;2023-02-19T08:35:22;54.22;45.01;62.28;;
41518;Laerm;27249;48.094;-1.690;2023-02-19T08:37:47;53.86;44.94;62.84;;
41518;Laerm;27249;48.094;-1.690;2023-02-19T08:40:12;51.42;42.88;62.00;;
41518;Laerm;27249;48.094;-1.690;2023-02-19T08:42:37;54.66;46.57;62.10;;
41518;Laerm;27249;48.094;-1.690;2023-02-19T08:45:03;54.58;45.83;64.30;;
41518;Laerm;27249;48.094;-1.690;2023-02-19T08:47:28;52.70;42.93;62.95;;
41518;Laerm;27249;48.094;-1.690;2023-02-19T08:49:53;54.04;42.98;62.39;;
41518;Laerm;27249;48.094;-1.690;2023-02-19T08:52:18;55.81;44.31;64.74;;
41518;Laerm;27249;48.094;-1.690;2023-02-19T08:54:44;54.57;44.35;61.51;;
41518;Laerm;27249;48.094;-1.690;2023-02-19T08:57:09;53.13;44.19;62.19;;
41518;Laerm;27249;48.094;-1.690;2023-02-19T08:59:34;55.22;46.13;63.19;;
41518;Laerm;27249;48.094;-1.690;2023-02-19T09:02:00;54.27;43.19;66.46;;
41518;Laerm;27249;48.094;-1.690;2023-02-19T09:04:25;52.76;44.39;61.52;;
41518;Laerm;27249;48.094;-1.690;2023-02-19T09:06:50;55.53;44.07;64.48;;
41518;Laerm;27249;48.094;-1.690;2023-02-19T09:09:15;54.23;45.42;63.17;;
41518;Laerm;27249;48.094;-1.690;2023-02-19T09:11:41;57.40;47.10;70.98;;
41518;Laerm;27249;48.094;-1.690;2023-02-19T09:14:06;53.97;44.11;63.80;;
41518;Laerm;27249;48.094;-1.690;2023-02-19T09:16:35;56.19;45.20;68.54;;
41518;Laerm;27249;48.094;-1.690;2023-02-19T09:19:00;62.08;45.07;69.68;;
41518;Laerm;27249;48.094;-1.690;2023-02-19T09:21:26;63.72;54.07;70.72;;
41518;Laerm;27249;48.094;-1.690;2023-02-19T09:23:51;55.48;47.67;63.93;;
41518;Laerm;27249;48.094;-1.690;2023-02-19T09:26:16;53.98;43.34;61.98;;
41518;Laerm;27249;48.094;-1.690;2023-02-19T09:28:41;56.46;47.74;64.47;;
41518;Laerm;27249;48.094;-1.690;2023-02-19T09:31:08;56.15;47.67;64.72;;
41518;Laerm;27249;48.094;-1.690;2023-02-19T09:33:34;55.31;46.71;63.51;;
41518;Laerm;27249;48.094;-1.690;2023-02-19T09:36:00;54.54;45.66;62.02;;
41518;Laerm;27249;48.094;-1.690;2023-02-19T09:38:25;54.36;43.77;63.22;;
41518;Laerm;27249;48.094;-1.690;2023-02-19T09:40:51;57.16;49.83;64.12;;
41518;Laerm;27249;48.094;-1.690;2023-02-19T09:43:20;55.87;45.91;64.00;;
41518;Laerm;27249;48.094;-1.690;2023-02-19T09:45:46;55.80;44.19;65.35;;
41518;Laerm;27249;48.094;-1.690;2023-02-19T09:48:12;54.24;44.51;63.67;;
41518;Laerm;27249;48.094;-1.690;2023-02-19T09:50:42;55.18;45.11;69.74;;
41518;Laerm;27249;48.094;-1.690;2023-02-19T09:53:22;56.40;42.88;64.54;;
41518;Laerm;27249;48.094;-1.690;2023-02-19T09:55:49;55.38;44.34;64.75;;
41518;Laerm;27249;48.094;-1.690;2023-02-19T09:58:23;56.07;44.54;65.39;;
41518;Laerm;27249;48.094;-1.690;2023-02-19T10:00:51;54.32;43.94;61.75;;
41518;Laerm;27249;48.094;-1.690;2023-02-19T10:03:27;52.88;44.92;60.06;;
41518;Laerm;27249;48.094;-1.690;2023-02-19T10:06:00;54.66;44.80;73.13;;
41518;Laerm;27249;48.094;-1.690;2023-02-19T10:08:26;55.75;43.81;64.77;;
41518;Laerm;27249;48.094;-1.690;2023-02-19T10:10:51;55.23;47.06;63.54;;
41518;Laerm;27249;48.094;-1.690;2023-02-19T10:13:27;55.35;45.66;66.69;;
41518;Laerm;27249;48.094;-1.690;2023-02-19T10:15:54;54.93;43.99;62.42;;
41518;Laerm;27249;48.094;-1.690;2023-02-19T10:18:21;55.51;47.02;63.65;;
41518;Laerm;27249;48.094;-1.690;2023-02-19T10:20:47;54.32;46.28;62.87;;
41518;Laerm;27249;48.094;-1.690;2023-02-19T10:23:14;55.28;45.23;62.89;;
41518;Laerm;27249;48.094;-1.690;2023-02-19T10:25:42;54.79;45.17;63.22;;
41518;Laerm;27249;48.094;-1.690;2023-02-19T10:28:08;57.85;45.36;67.91;;
41518;Laerm;27249;48.094;-1.690;2023-02-19T10:30:37;54.23;44.73;66.23;;
41518;Laerm;27249;48.094;-1.690;2023-02-19T10:33:03;56.08;44.27;69.83;;
41518;Laerm;27249;48.094;-1.690;2023-02-19T10:35:34;56.65;48.85;67.18;;
41518;Laerm;27249;48.094;-1.690;2023-02-19T10:38:00;56.93;45.97;68.69;;
41518;Laerm;27249;48.094;-1.690;2023-02-19T10:40:26;56.27;50.43;67.99;;
41518;Laerm;27249;48.094;-1.690;2023-02-19T10:42:53;56.89;47.10;64.47;;
41518;Laerm;27249;48.094;-1.690;2023-02-19T10:45:32;55.76;46.57;63.18;;
41518;Laerm;27249;48.094;-1.690;2023-02-19T10:47:58;56.49;47.10;64.98;;
41518;Laerm;27249;48.094;-1.690;2023-02-19T10:50:31;55.72;45.01;66.31;;
41518;Laerm;27249;48.094;-1.690;2023-02-19T10:52:59;55.76;48.48;63.32;;
41518;Laerm;27249;48.094;-1.690;2023-02-19T10:55:26;55.90;44.15;65.99;;
41518;Laerm;27249;48.094;-1.690;2023-02-19T10:57:52;54.91;43.89;62.30;;
41518;Laerm;27249;48.094;-1.690;2023-02-19T11:00:21;60.21;48.60;79.36;;
41518;Laerm;27249;48.094;-1.690;2023-02-19T11:02:46;58.04;46.69;73.68;;
41518;Laerm;27249;48.094;-1.690;2023-02-19T11:07:57;56.31;49.29;63.83;;
41518;Laerm;27249;48.094;-1.690;2023-02-19T11:10:24;55.68;44.23;66.34;;
41518;Laerm;27249;48.094;-1.690;2023-02-19T11:12:50;55.33;47.38;61.72;;
41518;Laerm;27249;48.094;-1.690;2023-02-19T11:15:30;56.30;45.04;64.59;;
41518;Laerm;27249;48.094;-1.690;2023-02-19T11:20:36;57.05;47.57;64.03;;
41518;Laerm;27249;48.094;-1.690;2023-02-19T11:23:17;58.50;47.44;68.90;;
41518;Laerm;27249;48.094;-1.690;2023-02-19T11:25:44;65.91;59.57;70.83;;
41518;Laerm;27249;48.094;-1.690;2023-02-19T11:28:24;62.63;49.52;74.24;;
41518;Laerm;27249;48.094;-1.690;2023-02-19T11:30:51;56.36;45.01;66.71;;
41518;Laerm;27249;48.094;-1.690;2023-02-19T11:35:49;66.99;48.02;83.17;;
41518;Laerm;27249;48.094;-1.690;2023-02-19T11:38:16;58.04;50.08;68.54;;
41518;Laerm;27249;48.094;-1.690;2023-02-19T11:43:35;56.51;46.64;65.37;;
41518;Laerm;27249;48.094;-1.690;2023-02-19T11:52:03;54.92;43.29;64.55;;
41518;Laerm;27249;48.094;-1.690;2023-02-19T12:11:06;55.02;46.07;63.75;;
41518;Laerm;27249;48.094;-1.690;2023-02-19T12:13:14;55.98;48.15;63.89;;
41518;Laerm;27249;48.094;-1.690;2023-02-19T12:29:42;56.50;45.83;64.98;;
41518;Laerm;27249;48.094;-1.690;2023-02-19T12:45:30;55.79;44.69;63.23;;
41518;Laerm;27249;48.094;-1.690;2023-02-19T12:50:54;56.00;44.04;65.03;;
41518;Laerm;27249;48.094;-1.690;2023-02-19T12:56:33;54.35;43.90;64.67;;
41518;Laerm;27249;48.094;-1.690;2023-02-19T13:05:03;54.92;45.45;64.82;;
41518;Laerm;27249;48.094;-1.690;2023-02-19T13:13:37;55.20;45.17;64.13;;
41518;Laerm;27249;48.094;-1.690;2023-02-19T13:16:07;55.92;44.31;68.50;;
41518;Laerm;27249;48.094;-1.690;2023-02-19T13:18:47;55.70;45.11;63.86;;
41518;Laerm;27249;48.094;-1.690;2023-02-19T13:21:13;55.29;42.98;64.02;;
41518;Laerm;27249;48.094;-1.690;2023-02-19T13:24:07;56.47;46.05;63.14;;
41518;Laerm;27249;48.094;-1.690;2023-02-19T13:26:40;55.91;45.36;66.53;;
41518;Laerm;27249;48.094;-1.690;2023-02-19T13:36:55;57.35;47.74;66.81;;
41518;Laerm;27249;48.094;-1.690;2023-02-19T13:39:20;55.21;45.89;63.50;;
41518;Laerm;27249;48.094;-1.690;2023-02-19T13:41:56;57.16;46.40;71.85;;
41518;Laerm;27249;48.094;-1.690;2023-02-19T13:44:32;56.15;44.54;67.77;;
41518;Laerm;27249;48.094;-1.690;2023-02-19T13:46:58;55.91;47.79;62.65;;
41518;Laerm;27249;48.094;-1.690;2023-02-19T13:49:36;56.67;44.31;64.72;;
41518;Laerm;27249;48.094;-1.690;2023-02-19T13:54:48;57.41;51.40;63.65;;
41518;Laerm;27249;48.094;-1.690;2023-02-19T13:59:48;58.34;49.63;68.93;;
41518;Laerm;27249;48.094;-1.690;2023-02-19T14:07:52;56.53;47.42;63.33;;
41518;Laerm;27249;48.094;-1.690;2023-02-19T14:16:10;57.13;44.73;64.50;;
41518;Laerm;27249;48.094;-1.690;2023-02-19T14:18:51;55.43;47.28;62.43;;
41518;Laerm;27249;48.094;-1.690;2023-02-19T14:21:37;57.08;46.93;65.76;;
41518;Laerm;27249;48.094;-1.690;2023-02-19T14:27:13;55.42;45.80;65.60;;
41518;Laerm;27249;48.094;-1.690;2023-02-19T14:29:39;55.61;46.80;64.52;;
41518;Laerm;27249;48.094;-1.690;2023-02-19T14:32:04;54.95;44.58;65.96;;
41518;Laerm;27249;48.094;-1.690;2023-02-19T14:43:37;54.22;44.47;63.59;;
41518;Laerm;27249;48.094;-1.690;2023-02-19T14:46:04;55.81;49.07;62.63;;
41518;Laerm;27249;48.094;-1.690;2023-02-19T14:48:38;55.59;47.90;64.58;;
41518;Laerm;27249;48.094;-1.690;2023-02-19T14:51:11;56.28;45.86;64.97;;
41518;Laerm;27249;48.094;-1.690;2023-02-19T14:53:40;53.64;44.62;63.09;;
41518;Laerm;27249;48.094;-1.690;2023-02-19T15:02:01;54.43;45.23;61.81;;
41518;Laerm;27249;48.094;-1.690;2023-02-19T15:10:32;54.61;43.49;64.30;;
41518;Laerm;27249;48.094;-1.690;2023-02-19T15:13:05;57.17;45.89;65.01;;
41518;Laerm;27249;48.094;-1.690;2023-02-19T15:15:33;55.07;43.90;67.35;;
41518;Laerm;27249;48.094;-1.690;2023-02-19T15:18:00;56.19;45.30;64.50;;
41518;Laerm;27249;48.094;-1.690;2023-02-19T15:20:30;52.92;43.34;61.48;;
41518;Laerm;27249;48.094;-1.690;2023-02-19T15:22:56;55.76;44.58;65.09;;
41518;Laerm;27249;48.094;-1.690;2023-02-19T15:25:23;54.37;44.73;62.73;;
41518;Laerm;27249;48.094;-1.690;2023-02-19T15:27:51;54.79;44.47;64.69;;
41518;Laerm;27249;48.094;-1.690;2023-02-19T15:30:20;56.21;47.50;68.52;;
41518;Laerm;27249;48.094;-1.690;2023-02-19T15:32:56;54.18;45.72;63.22;;
41518;Laerm;27249;48.094;-1.690;2023-02-19T15:35:22;55.74;44.58;63.66;;
41518;Laerm;27249;48.094;-1.690;2023-02-19T15:37:49;53.59;43.49;63.27;;
41518;Laerm;27249;48.094;-1.690;2023-02-19T15:40:15;56.24;44.23;64.94;;
41518;Laerm;27249;48.094;-1.690;2023-02-19T15:42:42;58.60;45.57;79.24;;
41518;Laerm;27249;48.094;-1.690;2023-02-19T15:45:16;54.84;44.94;64.14;;
41518;Laerm;27249;48.094;-1.690;2023-02-19T15:48:03;55.75;45.11;64.66;;
41518;Laerm;27249;48.094;-1.690;2023-02-19T15:50:33;55.67;49.25;63.80;;
41518;Laerm;27249;48.094;-1.690;2023-02-19T15:53:00;54.88;45.86;63.82;;
41518;Laerm;27249;48.094;-1.690;2023-02-19T15:58:16;60.57;46.78;90.45;;
41518;Laerm;27249;48.094;-1.690;2023-02-19T16:03:21;56.36;45.40;63.54;;
41518;Laerm;27249;48.094;-1.690;2023-02-19T16:06:09;59.32;46.55;76.63;;
41518;Laerm;27249;48.094;-1.690;2023-02-19T16:08:36;55.88;44.47;68.41;;
41518;Laerm;27249;48.094;-1.690;2023-02-19T16:11:03;56.13;46.35;61.82;;